KCVO/CVO METAR and TAF weather

Enter ICAO airport designator
Station Type Date Time Source
KCVO METAR 2018/10/16 19:56 UTC NOAA

KCVO 161956Z AUTO 08006KT 10SM CLR 21/04 A3023 RMK AO2 SLP237 T02060039


Station Type Date Time Source
KCVO Decoded METAR 2018/10/16 19:56 UTC NOAA

Corvallis, Corvallis Municipal Airport, OR, United States (KCVO) 44-30N 123-17W
Oct 16, 2018 - 03:56 PM EDT / 2018.10.16 1956 UTC
Wind: from the E (080 degrees) at 7 MPH (6 KT):0
Visibility: 10 mile(s):0
Sky conditions: clear
Temperature: 69.1 F (20.6 C)
Dew Point: 39.0 F (3.9 C)
Relative Humidity: 33%
Pressure (altimeter): 30.23 in. Hg (1023 hPa)
ob: KCVO 161956Z AUTO 08006KT 10SM CLR 21/04 A3023 RMK AO2 SLP237 T02060039
cycle: 20

Station Type Date Time Source
KCVO TAF UTC NOAA

Error!


Example: see airport list